Time;durP1;ratioP1;P1;durP2;ratioP2;P2;SDS_P1;SDS_P2;PMS_P1;PMS_P2;Temp;Humidity;BMP_temperature;BMP_pressure;BME280_temperature;BME280_humidity;BME280_pressure;Samples;Min_cycle;Max_cycle;Signal;HPM_P1;HPM_P2
2022/04/21 00:01:34;;;;;;;6.95;4.10;;;14.00;79.10;;;;;;5038790;28;20028;-93
2022/04/21 00:03:59;;;;;;;6.70;3.92;;;13.90;79.10;;;;;;5038627;28;20033;-94
2022/04/21 00:06:25;;;;;;;7.60;4.03;;;13.90;79.10;;;;;;5038555;28;20496;-94
2022/04/21 00:08:51;;;;;;;10.10;4.28;;;13.90;79.10;;;;;;5038693;28;20116;-94
2022/04/21 00:11:16;;;;;;;6.40;4.38;;;13.90;79.10;;;;;;5038409;28;20028;-94
2022/04/21 00:13:42;;;;;;;6.38;3.90;;;13.90;79.10;;;;;;5038537;28;20096;-93
2022/04/21 00:16:08;;;;;;;7.05;3.78;;;13.90;79.10;;;;;;5037793;28;20017;-94
2022/04/21 00:18:33;;;;;;;6.50;4.45;;;13.90;79.10;;;;;;5038824;28;20021;-94
2022/04/21 00:21:01;;;;;;;12.90;4.75;;;13.90;79.10;;;;;;5039691;28;20059;-95
2022/04/21 00:23:27;;;;;;;8.25;3.85;;;13.80;79.10;;;;;;5031355;28;206328;-94
2022/04/21 00:25:58;;;;;;;11.02;4.60;;;13.90;79.20;;;;;;5056671;28;20032;-94
2022/04/21 00:28:25;;;;;;;8.70;5.03;;;13.80;79.20;;;;;;5056594;28;20078;-93
2022/04/21 00:30:50;;;;;;;8.07;4.68;;;13.80;79.20;;;;;;5038650;28;20029;-93
2022/04/21 00:33:17;;;;;;;9.75;4.47;;;13.80;79.20;;;;;;5038612;28;20033;-94
2022/04/21 00:35:42;;;;;;;8.40;3.80;;;13.70;79.10;;;;;;5037759;28;20025;-93
2022/04/21 00:38:08;;;;;;;6.25;4.32;;;13.80;79.40;;;;;;5038866;28;20119;-93
2022/04/21 00:40:34;;;;;;;7.32;4.35;;;13.80;79.60;;;;;;5039010;28;20545;-94
2022/04/21 00:43:00;;;;;;;9.20;3.80;;;13.70;79.30;;;;;;5038023;28;20029;-94
2022/04/21 00:45:29;;;;;;;5.85;3.67;;;13.80;79.60;;;;;;5038616;28;20029;-93
2022/04/21 00:47:57;;;;;;;5.25;3.53;;;13.70;79.50;;;;;;5039226;28;20123;-94
2022/04/21 00:50:32;;;;;;;7.35;3.70;;;13.70;79.50;;;;;;5038257;28;20373;-94
2022/04/21 00:52:58;;;;;;;;;;;13.70;79.50;;;;;;5038246;28;20032;-94
2022/04/21 00:55:24;;;;;;;8.85;3.80;;;13.70;79.40;;;;;;5038130;28;19911;-93
2022/04/21 00:57:52;;;;;;;8.68;3.75;;;13.70;79.50;;;;;;5038037;28;20021;-94
2022/04/21 01:00:18;;;;;;;5.65;3.72;;;13.70;79.50;;;;;;5038363;28;20025;-93
2022/04/21 01:02:49;;;;;;;8.20;3.40;;;13.70;79.50;;;;;;5037228;28;20082;-93
2022/04/21 01:05:26;;;;;;;9.73;3.70;;;13.60;79.40;;;;;;5037324;28;20051;-93
2022/04/21 01:07:53;;;;;;;4.20;2.92;;;13.60;79.50;;;;;;5037175;28;20017;-94
2022/04/21 01:10:19;;;;;;;6.47;3.40;;;13.60;80.30;;;;;;5037859;28;20483;-94
2022/04/21 01:12:45;;;;;;;5.40;3.30;;;13.60;79.50;;;;;;5037986;28;20033;-94
2022/04/21 01:15:11;;;;;;;6.15;3.67;;;13.60;79.50;;;;;;5055647;28;20025;-94
2022/04/21 01:17:39;;;;;;;5.25;3.17;;;13.60;79.60;;;;;;5037861;28;20021;-93
2022/04/21 01:20:06;;;;;;;10.35;3.22;;;13.50;79.60;;;;;;5037739;28;20025;-93
2022/04/21 01:22:32;;;;;;;4.80;3.38;;;13.60;79.70;;;;;;5037618;28;20627;-93
2022/04/21 01:24:58;;;;;;;6.03;3.30;;;13.60;79.70;;;;;;5037873;28;20064;-94
2022/04/21 01:27:27;;;;;;;5.50;3.30;;;13.50;79.60;;;;;;5037847;28;20392;-93
2022/04/21 01:29:53;;;;;;;6.55;3.05;;;13.50;79.80;;;;;;5036891;28;20021;-94
2022/04/21 01:32:19;;;;;;;11.65;3.22;;;13.50;79.80;;;;;;5038114;28;20095;-94
2022/04/21 01:34:44;;;;;;;5.70;3.35;;;13.50;79.80;;;;;;5038280;28;20031;-93
2022/04/21 01:42:39;;;;;;;9.60;3.30;;;13.50;79.70;;;;;;5056215;28;20075;-94
2022/04/21 01:45:05;;;;;;;5.65;3.60;;;13.40;79.70;;;;;;5038156;28;20033;-93
2022/04/21 01:47:30;;;;;;;4.20;3.10;;;13.40;79.70;;;;;;5036942;28;20035;-93
2022/04/21 01:49:56;;;;;;;4.25;3.05;;;13.40;79.80;;;;;;5037160;28;20025;-94
2022/04/21 01:52:22;;;;;;;5.80;3.50;;;13.40;79.80;;;;;;5037466;28;20064;-93
2022/04/21 01:54:50;;;;;;;4.45;3.17;;;13.40;79.80;;;;;;5037630;28;20025;-93
2022/04/21 01:57:18;;;;;;;8.43;2.97;;;13.30;79.80;;;;;;5038114;28;20024;-93
2022/04/21 01:59:44;;;;;;;5.32;3.08;;;13.30;79.90;;;;;;5037567;28;20454;-93
2022/04/21 02:02:10;;;;;;;8.43;3.28;;;13.30;79.90;;;;;;5037366;28;20025;-94
2022/04/21 02:04:35;;;;;;;8.20;3.70;;;13.30;80.00;;;;;;5037537;28;20162;-93
2022/04/21 02:07:03;;;;;;;6.20;3.17;;;13.30;80.00;;;;;;5036241;28;20075;-93
2022/04/21 02:09:29;;;;;;;7.28;3.70;;;13.30;80.00;;;;;;5037186;28;20112;-93
2022/04/21 02:11:55;;;;;;;5.07;3.17;;;13.30;80.10;;;;;;5036797;28;20102;-94
2022/04/21 02:14:20;;;;;;;5.45;3.08;;;13.30;80.10;;;;;;5036910;28;20021;-94
2022/04/21 02:16:46;;;;;;;6.30;3.30;;;13.20;80.00;;;;;;5036914;28;20024;-94
2022/04/21 02:19:12;;;;;;;7.70;3.25;;;13.30;80.10;;;;;;5037040;28;20051;-93
2022/04/21 02:21:37;;;;;;;6.20;2.80;;;13.30;80.10;;;;;;5036862;28;20070;-94
2022/04/21 02:24:03;;;;;;;3.45;2.80;;;13.20;80.00;;;;;;5054719;28;20025;-93
2022/04/21 02:26:29;;;;;;;6.18;3.05;;;13.20;80.20;;;;;;5036040;28;20075;-93
2022/04/21 02:28:54;;;;;;;5.85;2.90;;;13.20;80.10;;;;;;5036770;28;20029;-93
2022/04/21 02:31:20;;;;;;;4.28;2.60;;;13.20;80.10;;;;;;5036705;28;20111;-93
2022/04/21 02:33:46;;;;;;;4.55;2.65;;;13.20;80.20;;;;;;5037717;28;20025;-93
2022/04/21 02:36:11;;;;;;;7.40;3.00;;;13.20;80.20;;;;;;5036750;28;20167;-93
2022/04/21 02:38:37;;;;;;;5.68;2.80;;;13.20;80.20;;;;;;5036925;28;20082;-94
2022/04/21 02:41:04;;;;;;;5.68;2.97;;;13.10;80.30;;;;;;5036917;28;20460;-93
2022/04/21 02:43:29;;;;;;;6.35;2.90;;;13.20;80.40;;;;;;5036337;28;20035;-94
2022/04/21 02:45:55;;;;;;;6.15;3.00;;;13.10;80.30;;;;;;5054696;28;20108;-94
2022/04/21 02:48:21;;;;;;;5.43;2.58;;;13.10;80.40;;;;;;5036952;28;20036;-93
2022/04/21 02:50:49;;;;;;;6.97;3.00;;;13.10;80.40;;;;;;5037013;28;20052;-94
2022/04/21 02:53:16;;;;;;;3.88;2.67;;;13.10;80.50;;;;;;5036722;28;20029;-93
2022/04/21 02:58:26;;;;;;;4.78;2.88;;;13.10;80.60;;;;;;5055172;28;20548;-93
2022/04/21 03:00:52;;;;;;;7.38;2.80;;;13.00;80.40;;;;;;5036716;28;20060;-94
2022/04/21 03:03:18;;;;;;;5.18;2.70;;;13.10;80.50;;;;;;5036502;28;20503;-93
2022/04/21 03:05:43;;;;;;;5.95;2.97;;;13.10;80.60;;;;;;5035819;28;20031;-93
2022/04/21 03:08:09;;;;;;;8.23;2.95;;;13.00;80.50;;;;;;5036476;28;20025;-94
2022/04/21 03:10:34;;;;;;;4.38;2.50;;;13.00;80.60;;;;;;5036381;28;20037;-93
2022/04/21 03:13:00;;;;;;;5.07;2.78;;;13.00;81.40;;;;;;5036646;28;20025;-94
2022/04/21 03:15:26;;;;;;;5.32;2.90;;;13.00;80.70;;;;;;5038576;28;20021;-94
2022/04/21 03:17:51;;;;;;;5.60;2.40;;;13.00;80.70;;;;;;5040601;28;20055;-93
2022/04/21 03:25:45;;;;;;;3.97;2.47;;;13.00;80.80;;;;;;5058610;28;20052;-93
2022/04/21 03:28:11;;;;;;;5.05;2.60;;;13.00;80.90;;;;;;5040454;28;20465;-93
2022/04/21 03:30:38;;;;;;;5.28;2.63;;;12.90;80.80;;;;;;5040200;28;20033;-94
2022/04/21 03:33:04;;;;;;;3.53;2.38;;;12.90;80.90;;;;;;5040283;28;20519;-93
2022/04/21 03:35:29;;;;;;;5.25;2.60;;;12.90;81.00;;;;;;5040270;28;20025;-93
2022/04/21 03:37:55;;;;;;;5.68;2.75;;;12.90;81.00;;;;;;5039729;28;20443;-94
2022/04/21 03:40:21;;;;;;;4.35;2.80;;;12.90;81.50;;;;;;5038522;28;20021;-92
2022/04/21 03:42:47;;;;;;;5.00;2.45;;;12.90;81.20;;;;;;5038881;28;20021;-93
2022/04/21 03:45:13;;;;;;;4.28;2.72;;;12.90;81.20;;;;;;5056697;28;20484;-93
2022/04/21 03:47:39;;;;;;;6.15;2.78;;;12.90;81.20;;;;;;5038585;28;20032;-94
2022/04/21 03:50:05;;;;;;;6.45;2.83;;;12.90;81.30;;;;;;5038819;28;20044;-94
2022/04/21 03:52:31;;;;;;;5.28;2.67;;;12.90;81.20;;;;;;5038457;28;20053;-93
2022/04/21 03:54:57;;;;;;;5.38;2.90;;;12.80;81.30;;;;;;5038853;28;20090;-93
2022/04/21 03:57:25;;;;;;;4.25;2.65;;;12.80;81.30;;;;;;5039349;28;20021;-94
2022/04/21 03:59:51;;;;;;;3.65;2.42;;;12.80;81.30;;;;;;5039164;28;20021;-93
2022/04/21 04:02:16;;;;;;;4.22;2.72;;;12.80;81.30;;;;;;5039735;28;20021;-93
2022/04/21 04:04:42;;;;;;;4.30;2.53;;;12.80;81.30;;;;;;5039485;28;20021;-93
2022/04/21 04:12:38;;;;;;;4.78;2.80;;;12.70;81.40;;;;;;5057399;28;20044;-94
2022/04/21 04:15:06;;;;;;;3.78;2.53;;;12.70;81.60;;;;;;5038567;28;20021;-93
2022/04/21 04:17:32;;;;;;;3.78;2.42;;;12.80;81.60;;;;;;5039583;28;20433;-93
2022/04/21 04:19:58;;;;;;;4.78;3.08;;;12.70;81.60;;;;;;5039799;28;20112;-94
2022/04/21 04:22:24;;;;;;;3.90;2.60;;;12.70;81.60;;;;;;5039463;28;20052;-94
2022/04/21 04:24:54;;;;;;;4.22;2.60;;;12.70;81.70;;;;;;5057016;28;20043;-93
2022/04/21 04:27:24;;;;;;;4.68;2.70;;;12.70;81.70;;;;;;5055737;28;20052;-94
2022/04/21 04:29:49;;;;;;;4.03;2.67;;;12.70;81.80;;;;;;5039088;28;20029;-94
2022/04/21 04:32:15;;;;;;;3.45;2.38;;;12.60;81.70;;;;;;5038259;28;20033;-93
2022/04/21 04:34:42;;;;;;;3.70;2.63;;;12.70;81.80;;;;;;5039016;28;20032;-93
2022/04/21 04:37:08;;;;;;;3.53;2.63;;;12.60;81.80;;;;;;5038939;28;20027;-94
2022/04/21 04:39:34;;;;;;;7.20;2.65;;;12.60;81.80;;;;;;5039276;28;20017;-93
2022/04/21 04:42:17;;;;;;;5.30;2.80;;;12.60;81.80;;;;;;5038707;28;20116;-94
2022/04/21 04:44:44;;;;;;;4.07;2.77;;;12.60;81.90;;;;;;5038680;28;20029;-94
2022/04/21 04:47:10;;;;;;;4.10;2.90;;;12.60;81.90;;;;;;5038800;28;20032;-93
2022/04/21 04:49:35;;;;;;;5.28;3.20;;;12.60;81.90;;;;;;5038160;28;20021;-92
2022/04/21 04:52:01;;;;;;;4.40;2.50;;;12.60;82.00;;;;;;5037410;28;20350;-93
2022/04/21 04:54:29;;;;;;;3.58;2.78;;;12.60;82.00;;;;;;5055501;28;20021;-93
2022/04/21 04:56:58;;;;;;;6.72;2.85;;;12.60;82.00;;;;;;5037291;28;20205;-93
2022/04/21 04:59:24;;;;;;;4.72;3.20;;;12.60;82.10;;;;;;5037254;28;20025;-93
2022/04/21 05:01:50;;;;;;;4.20;2.80;;;12.60;82.30;;;;;;5037376;28;20032;-94
2022/04/21 05:04:20;;;;;;;5.43;2.70;;;12.60;82.20;;;;;;5055004;28;20128;-93
2022/04/21 05:06:46;;;;;;;4.03;2.65;;;12.60;82.30;;;;;;5037027;28;20433;-94
2022/04/21 05:09:16;;;;;;;4.75;2.80;;;12.60;82.30;;;;;;5037036;28;20116;-94
2022/04/21 05:11:44;;;;;;;4.55;2.65;;;12.60;82.30;;;;;;5037003;28;20068;-93
2022/04/21 05:14:10;;;;;;;6.07;2.83;;;12.60;82.40;;;;;;5037292;28;20021;-93
2022/04/21 05:16:37;;;;;;;5.50;3.03;;;12.60;82.40;;;;;;5037110;28;20056;-95
2022/04/21 05:19:04;;;;;;;4.32;2.60;;;12.50;82.40;;;;;;5054692;28;20025;-93
2022/04/21 05:21:32;;;;;;;3.72;2.60;;;12.50;82.50;;;;;;5036840;28;20113;-93
2022/04/21 05:23:59;;;;;;;5.47;2.70;;;12.50;82.50;;;;;;5037086;28;20033;-94
2022/04/21 05:26:26;;;;;;;6.03;2.90;;;12.60;82.60;;;;;;5037040;28;20127;-93
2022/04/21 05:28:52;;;;;;;6.13;3.15;;;12.50;82.60;;;;;;5037005;28;20028;-92
2022/04/21 05:31:18;;;;;;;9.35;4.57;;;12.50;82.70;;;;;;5054385;28;20075;-93
2022/04/21 05:33:44;;;;;;;9.98;4.22;;;12.50;82.80;;;;;;5036827;28;20020;-93
2022/04/21 05:36:11;;;;;;;10.70;4.47;;;12.50;82.70;;;;;;5036548;28;20021;-93
2022/04/21 05:38:37;;;;;;;8.90;4.13;;;12.50;82.90;;;;;;5036485;28;20032;-94
2022/04/21 05:41:04;;;;;;;7.63;3.65;;;12.50;82.90;;;;;;5036608;28;20207;-93
2022/04/21 05:43:40;;;;;;;5.63;3.25;;;12.50;83.00;;;;;;5054220;28;20033;-93
2022/04/21 05:46:06;;;;;;;4.95;3.47;;;12.50;83.10;;;;;;5036355;28;20040;-93
2022/04/21 05:48:33;;;;;;;5.65;3.15;;;12.50;83.10;;;;;;5036511;28;20488;-93
2022/04/21 05:50:59;;;;;;;6.95;3.20;;;12.50;83.30;;;;;;5036149;28;20025;-93
2022/04/21 05:53:26;;;;;;;6.28;3.47;;;12.50;83.30;;;;;;5053988;28;20029;-94
2022/04/21 05:55:54;;;;;;;7.97;3.85;;;12.50;83.40;;;;;;5036174;28;20024;-94
2022/04/21 05:58:20;;;;;;;5.95;3.15;;;12.50;83.50;;;;;;5036348;28;20059;-94
2022/04/21 06:00:46;;;;;;;7.70;3.90;;;12.50;83.60;;;;;;5036331;28;20021;-94
2022/04/21 06:03:12;;;;;;;7.05;3.72;;;12.50;83.70;;;;;;5036250;28;20032;-94
2022/04/21 06:05:41;;;;;;;5.03;3.40;;;12.50;83.70;;;;;;5036452;28;20029;-94
2022/04/21 06:08:07;;;;;;;6.78;3.95;;;12.60;83.90;;;;;;5039431;28;20054;-94
2022/04/21 06:10:34;;;;;;;5.28;3.85;;;12.60;83.90;;;;;;5040051;28;20388;-95
2022/04/21 06:13:02;;;;;;;7.22;3.67;;;12.50;84.70;;;;;;5039318;28;20468;-94
2022/04/21 06:15:31;;;;;;;7.60;3.70;;;12.60;84.10;;;;;;5038021;28;20021;-94
2022/04/21 06:18:00;;;;;;;7.07;3.92;;;12.60;84.30;;;;;;5039229;28;20021;-94
2022/04/21 06:20:27;;;;;;;5.40;3.70;;;12.60;84.30;;;;;;5055973;28;20067;-94
2022/04/21 06:22:57;;;;;;;9.13;4.07;;;12.60;84.50;;;;;;5025589;28;20441;-95
2022/04/21 06:25:23;;;;;;;7.20;4.40;;;12.60;84.70;;;;;;5036706;28;20109;-95
2022/04/21 06:27:50;;;;;;;7.55;3.92;;;12.60;84.70;;;;;;5036252;28;20049;-94
2022/04/21 06:30:15;;;;;;;7.03;3.58;;;12.60;84.90;;;;;;5017361;28;20555;-94
2022/04/21 06:32:41;;;;;;;7.32;4.10;;;12.60;85.00;;;;;;5017151;28;20025;-94
2022/04/21 06:35:08;;;;;;;8.73;3.80;;;12.60;85.00;;;;;;5016770;28;20032;-95
2022/04/21 06:37:35;;;;;;;5.60;3.85;;;12.60;85.00;;;;;;5016863;28;20452;-94
2022/04/21 06:40:01;;;;;;;6.70;3.42;;;12.60;85.10;;;;;;5034482;28;20124;-94
2022/04/21 06:42:27;;;;;;;5.90;3.70;;;12.60;85.20;;;;;;5016916;28;20030;-94
2022/04/21 06:50:39;;;;;;;7.75;3.63;;;12.70;85.60;;;;;;4977763;28;20110;-94
2022/04/21 06:53:10;;;;;;;6.88;3.60;;;12.70;85.70;;;;;;5014269;28;20124;-94
2022/04/21 06:55:35;;;;;;;6.38;3.30;;;12.70;86.00;;;;;;5022954;28;20036;-94
2022/04/21 06:58:02;;;;;;;6.10;3.67;;;12.70;86.20;;;;;;5022489;28;20362;-94
2022/04/21 07:00:31;;;;;;;7.57;3.63;;;12.70;86.50;;;;;;5022769;28;20037;-94
2022/04/21 07:02:57;;;;;;;5.85;3.78;;;12.70;86.70;;;;;;5023201;28;20021;-94
2022/04/21 07:05:24;;;;;;;6.30;4.05;;;12.70;87.10;;;;;;5022243;28;20044;-95
2022/04/21 07:07:53;;;;;;;8.55;3.70;;;12.80;87.00;;;;;;5039959;28;20477;-95
2022/04/21 07:10:20;;;;;;;8.85;4.15;;;12.80;87.00;;;;;;5023285;28;20025;-94
2022/04/21 07:12:46;;;;;;;6.45;3.75;;;12.80;87.00;;;;;;5022602;28;20042;-94
2022/04/21 07:15:13;;;;;;;5.63;3.65;;;12.80;86.90;;;;;;5021822;28;20021;-95
2022/04/21 07:17:42;;;;;;;6.18;3.85;;;12.90;86.90;;;;;;5020789;28;20026;-94
2022/04/21 07:20:11;;;;;;;5.45;3.50;;;12.90;86.90;;;;;;5022132;28;20033;-94
2022/04/21 07:22:37;;;;;;;7.85;3.83;;;12.90;87.10;;;;;;5020960;28;20050;-94
2022/04/21 07:25:08;;;;;;;7.18;4.03;;;12.90;87.30;;;;;;5020968;28;20022;-94
2022/04/21 07:27:36;;;;;;;6.28;3.50;;;13.00;87.50;;;;;;5021762;28;20032;-94
2022/04/21 07:30:02;;;;;;;6.13;3.65;;;13.10;87.60;;;;;;5021727;28;20036;-94
2022/04/21 07:32:28;;;;;;;8.73;3.50;;;13.10;87.50;;;;;;5038576;28;20022;-94
2022/04/21 07:34:54;;;;;;;6.90;3.90;;;13.10;87.40;;;;;;5037842;28;20105;-93
2022/04/21 07:37:20;;;;;;;8.70;3.78;;;13.20;87.50;;;;;;5019879;28;20025;-93
2022/04/21 07:39:45;;;;;;;5.97;3.53;;;13.20;87.50;;;;;;5020170;28;20342;-93
2022/04/21 07:42:11;;;;;;;5.93;3.50;;;13.20;87.40;;;;;;5019840;28;20108;-94
2022/04/21 07:44:38;;;;;;;5.70;3.70;;;13.30;87.30;;;;;;5019599;28;20022;-94
2022/04/21 07:47:05;;;;;;;5.68;3.67;;;13.30;87.20;;;;;;5019767;28;20128;-94
2022/04/21 07:49:48;;;;;;;5.47;3.50;;;13.30;87.20;;;;;;5019346;28;20037;-94
2022/04/21 07:55:10;;;;;;;5.63;3.47;;;13.40;86.90;;;;;;5037622;28;20099;-94
2022/04/21 07:57:35;;;;;;;7.72;3.47;;;13.40;86.90;;;;;;5018985;28;20033;-89
2022/04/21 08:00:03;;;;;;;5.22;3.22;;;13.40;86.70;;;;;;5020037;28;20025;-95
2022/04/21 08:02:32;;;;;;;4.65;3.30;;;13.50;86.80;;;;;;5020344;28;20037;-95
2022/04/21 08:04:58;;;;;;;5.90;3.20;;;13.50;86.60;;;;;;5020639;28;20397;-95
2022/04/21 08:07:23;;;;;;;6.93;3.40;;;13.50;86.50;;;;;;5020263;28;20022;-96
2022/04/21 08:09:51;;;;;;;5.47;3.42;;;13.60;86.40;;;;;;5018975;28;20032;-96
2022/04/21 08:12:17;;;;;;;4.80;3.28;;;13.60;86.40;;;;;;5019125;28;20026;-94
2022/04/21 08:14:43;;;;;;;6.47;3.60;;;13.60;86.20;;;;;;5036797;28;20537;-95
2022/04/21 08:17:09;;;;;;;6.13;3.20;;;13.60;86.20;;;;;;5018339;28;20025;-93
2022/04/21 08:19:34;;;;;;;5.13;3.17;;;13.70;86.30;;;;;;5019014;28;20520;-94
2022/04/21 08:22:00;;;;;;;6.60;4.10;;;13.70;86.20;;;;;;5018811;28;20113;-93
2022/04/21 08:32:43;;;;;;;5.72;3.60;;;13.80;86.00;;;;;;5038005;28;20203;-94
2022/04/21 08:35:13;;;;;;;8.60;4.00;;;13.80;86.00;;;;;;5019425;28;20033;-94
2022/04/21 08:37:40;;;;;;;4.95;3.50;;;13.80;86.00;;;;;;5018981;28;20500;-94
2022/04/21 08:40:08;;;;;;;6.05;3.28;;;13.90;86.10;;;;;;5018258;28;20017;-94
2022/04/21 08:42:37;;;;;;;7.20;3.80;;;13.90;86.00;;;;;;5018909;28;20393;-91
2022/04/21 08:45:04;;;;;;;6.97;3.42;;;13.90;86.00;;;;;;5019438;28;20021;-93
2022/04/21 08:47:32;;;;;;;6.97;4.20;;;13.90;85.70;;;;;;5020321;28;20021;-95
2022/04/21 08:50:06;;;;;;;5.22;3.75;;;14.00;85.50;;;;;;5004062;28;20026;-93
2022/04/21 08:52:33;;;;;;;;;;;14.00;85.30;;;;;;5019688;28;20084;-94
2022/04/21 08:54:59;;;;;;;6.65;3.67;;;14.00;85.30;;;;;;5036178;28;19909;-94
2022/04/21 08:57:24;;;;;;;5.03;3.30;;;14.10;85.20;;;;;;5018822;28;20111;-94
2022/04/21 08:59:50;;;;;;;5.15;3.30;;;14.10;85.20;;;;;;5018330;28;20612;-94
2022/04/21 09:02:16;;;;;;;9.55;3.95;;;14.10;85.10;;;;;;5018098;28;20388;-94
2022/04/21 09:04:42;;;;;;;5.35;3.35;;;14.10;85.00;;;;;;5036175;28;20105;-93
2022/04/21 09:07:15;;;;;;;5.20;3.38;;;14.10;84.90;;;;;;5017613;28;20030;-94
2022/04/21 09:09:58;;;;;;;4.97;3.47;;;14.20;85.00;;;;;;5018223;28;20120;-94
2022/04/21 09:12:24;;;;;;;4.80;3.50;;;14.20;85.10;;;;;;5017836;28;20540;-94
2022/04/21 09:14:49;;;;;;;4.82;4.03;;;14.20;85.00;;;;;;5018363;28;20025;-93
2022/04/21 09:17:16;;;;;;;7.03;4.25;;;14.20;85.00;;;;;;5018624;28;20021;-92
2022/04/21 09:19:59;;;;;;;7.32;3.63;;;14.30;85.00;;;;;;5017832;28;20017;-93
2022/04/21 09:22:30;;;;;;;4.50;3.40;;;14.30;85.00;;;;;;5017916;28;20057;-93
2022/04/21 09:24:58;;;;;;;6.57;3.67;;;14.30;84.90;;;;;;5018277;28;20025;-93
2022/04/21 09:27:23;;;;;;;6.45;3.88;;;14.40;84.90;;;;;;5017519;28;20026;-94
2022/04/21 09:29:50;;;;;;;5.10;3.38;;;14.40;85.00;;;;;;5017871;28;20120;-93
2022/04/21 09:32:17;;;;;;;6.53;4.28;;;14.40;84.80;;;;;;5017937;28;20030;-93
2022/04/21 09:34:50;;;;;;;5.25;3.15;;;14.40;84.90;;;;;;5018423;28;20457;-93
2022/04/21 09:37:20;;;;;;;5.43;3.63;;;14.50;85.00;;;;;;5018382;28;20108;-94
2022/04/21 09:39:52;;;;;;;6.63;3.90;;;14.50;84.80;;;;;;5017999;28;20429;-93
2022/04/21 09:42:29;;;;;;;6.80;3.53;;;14.50;84.70;;;;;;5018253;28;20108;-94
2022/04/21 09:47:50;;;;;;;7.10;3.15;;;14.60;84.70;;;;;;5035369;28;20577;-93
2022/04/21 09:50:16;;;;;;;5.65;3.85;;;14.60;84.70;;;;;;5018269;28;20053;-92
2022/04/21 09:52:49;;;;;;;6.53;3.33;;;14.60;85.00;;;;;;5017566;28;20032;-88
2022/04/21 09:55:22;;;;;;;4.13;3.40;;;14.70;85.00;;;;;;5017718;28;20481;-94
2022/04/21 09:58:12;;;;;;;5.55;3.80;;;14.70;84.90;;;;;;5017920;28;20056;-92
2022/04/21 10:00:39;;;;;;;4.03;3.30;;;14.70;85.10;;;;;;5007354;28;20034;-95
2022/04/21 10:03:06;;;;;;;4.13;3.33;;;14.70;84.80;;;;;;5017565;28;20098;-94
2022/04/21 10:05:33;;;;;;;5.22;3.40;;;14.80;84.80;;;;;;5018636;28;20029;-95
2022/04/21 10:08:04;;;;;;;5.57;3.50;;;14.80;84.70;;;;;;5017119;28;20477;-94
2022/04/21 10:10:30;;;;;;;6.95;3.22;;;14.80;84.50;;;;;;5034155;28;20028;-93
2022/04/21 10:12:59;;;;;;;3.67;2.67;;;14.90;84.50;;;;;;5016582;28;20031;-96
2022/04/21 10:15:26;;;;;;;5.18;3.45;;;14.90;84.60;;;;;;5016620;28;20028;-95
2022/04/21 10:17:51;;;;;;;6.72;3.70;;;14.90;84.60;;;;;;5016944;28;20025;-93
2022/04/21 10:20:19;;;;;;;5.70;3.80;;;14.90;84.40;;;;;;5017284;28;20025;-94
2022/04/21 10:22:47;;;;;;;5.78;3.38;;;14.90;84.50;;;;;;5017143;28;20057;-95
2022/04/21 10:25:13;;;;;;;6.20;3.20;;;14.90;84.40;;;;;;5021362;28;20025;-95
2022/04/21 10:27:45;;;;;;;4.30;3.20;;;14.90;84.30;;;;;;5020831;28;20029;-94
2022/04/21 10:30:21;;;;;;;4.72;3.25;;;15.00;84.30;;;;;;5020770;28;20025;-94
2022/04/21 10:32:55;;;;;;;6.95;3.30;;;15.00;84.30;;;;;;5020528;28;20139;-95
2022/04/21 10:35:24;;;;;;;5.82;3.00;;;15.00;84.10;;;;;;5020427;28;20066;-93
2022/04/21 10:38:14;;;;;;;4.95;3.17;;;15.10;84.30;;;;;;5020365;28;20033;-93
2022/04/21 10:41:10;;;;;;;7.38;3.70;;;15.10;84.60;;;;;;5020204;28;20018;-94
2022/04/21 10:43:48;;;;;;;3.90;2.92;;;15.10;85.00;;;;;;5020212;28;20121;-94
2022/04/21 10:46:19;;;;;;;6.53;4.38;;;15.10;84.70;;;;;;5020225;28;20025;-94
2022/04/21 10:48:45;;;;;;;5.00;3.47;;;15.20;85.30;;;;;;5038052;28;20101;-95
2022/04/21 10:51:11;;;;;;;7.95;4.10;;;15.20;85.20;;;;;;5021083;28;20032;-94
2022/04/21 10:59:29;;;;;;;3.97;2.97;;;15.30;85.00;;;;;;5038072;28;20028;-94
2022/04/21 11:01:56;;;;;;;4.82;3.10;;;15.30;84.90;;;;;;5020046;28;20477;-94
2022/04/21 11:04:23;;;;;;;5.22;3.03;;;15.30;85.00;;;;;;5019969;28;20396;-93
2022/04/21 11:07:11;;;;;;;7.43;4.10;;;15.40;85.00;;;;;;5020093;28;20082;-92
2022/04/21 11:09:41;;;;;;;6.28;3.65;;;15.50;85.50;;;;;;5019784;28;20022;-94
2022/04/21 11:12:12;;;;;;;3.78;2.92;;;15.50;84.80;;;;;;5020052;28;20025;-93
2022/04/21 11:14:39;;;;;;;5.00;3.30;;;15.40;84.80;;;;;;5021106;28;20021;-94
2022/04/21 11:17:09;;;;;;;5.30;3.20;;;15.40;85.10;;;;;;5020106;28;20018;-94
2022/04/21 11:19:40;;;;;;;12.85;3.38;;;15.30;85.50;;;;;;5020717;28;20095;-94
2022/04/21 11:22:10;;;;;;;6.57;3.67;;;15.30;85.30;;;;;;5019413;28;20061;-93
2022/04/21 11:24:55;;;;;;;6.80;3.25;;;15.20;85.70;;;;;;5019342;28;20084;-90
2022/04/21 11:27:21;;;;;;;3.47;2.42;;;15.20;86.10;;;;;;5018668;28;20022;-89
2022/04/21 11:29:47;;;;;;;3.30;2.70;;;15.20;85.90;;;;;;5036399;28;20315;-90
2022/04/21 11:32:20;;;;;;;6.78;3.20;;;15.10;86.00;;;;;;5018438;28;20076;-90
2022/04/21 11:35:04;;;;;;;4.65;3.10;;;15.10;86.50;;;;;;5018645;28;20025;-91
2022/04/21 11:37:46;;;;;;;;;;;15.10;86.50;;;;;;5036900;28;20025;-90
2022/04/21 11:40:32;;;;;;;5.10;3.30;;;15.00;86.50;;;;;;5018183;28;19906;-88
2022/04/21 11:43:05;;;;;;;6.45;2.95;;;15.00;86.60;;;;;;5018813;28;20029;-88
2022/04/21 11:45:36;;;;;;;4.30;2.40;;;15.10;86.70;;;;;;5017950;28;20025;-88
2022/04/21 11:48:13;;;;;;;5.93;2.80;;;15.10;86.50;;;;;;5035809;28;20408;-88
2022/04/21 11:50:43;;;;;;;3.95;2.80;;;15.20;86.70;;;;;;5017934;28;20025;-89
2022/04/21 11:53:20;;;;;;;4.20;2.72;;;15.20;86.80;;;;;;5035786;28;20045;-89
2022/04/21 11:55:47;;;;;;;6.55;2.60;;;15.20;86.90;;;;;;5018247;28;20112;-92
2022/04/21 11:58:36;;;;;;;3.75;2.40;;;15.20;86.90;;;;;;5036255;28;20018;-91
2022/04/21 12:06:49;;;;;;;3.45;2.00;;;15.40;86.60;;;;;;5035917;28;20029;-89
2022/04/21 12:09:17;;;;;;;3.85;2.25;;;15.40;86.40;;;;;;5017550;28;20029;-89
2022/04/21 12:11:48;;;;;;;3.28;2.50;;;15.40;86.30;;;;;;5017271;28;20035;-88
2022/04/21 12:14:15;;;;;;;4.00;2.63;;;15.40;86.70;;;;;;5017358;28;20021;-89
2022/04/21 12:16:50;;;;;;;4.13;2.08;;;15.50;86.60;;;;;;5035607;28;20484;-88
2022/04/21 12:19:35;;;;;;;6.38;2.50;;;15.50;86.60;;;;;;5018500;28;20025;-89
2022/04/21 12:22:07;;;;;;;3.30;2.65;;;15.50;86.50;;;;;;5017615;28;20045;-90
2022/04/21 12:24:38;;;;;;;4.78;2.25;;;15.50;86.50;;;;;;5017463;28;20163;-91
2022/04/21 12:27:25;;;;;;;3.90;2.20;;;15.60;86.40;;;;;;5017420;28;20044;-91
2022/04/21 12:29:56;;;;;;;3.00;2.33;;;15.60;86.10;;;;;;5017442;28;20033;-89
2022/04/21 12:32:25;;;;;;;3.03;2.00;;;15.60;86.10;;;;;;5017246;28;20060;-90
2022/04/21 12:34:55;;;;;;;3.55;2.00;;;15.60;86.10;;;;;;5018103;28;20060;-90
2022/04/21 12:37:38;;;;;;;4.53;1.92;;;15.70;86.20;;;;;;5017370;28;20024;-88
2022/04/21 12:40:09;;;;;;;2.88;2.10;;;15.70;86.20;;;;;;5034817;28;20024;-89
2022/04/21 12:42:35;;;;;;;3.10;2.10;;;15.70;86.30;;;;;;5034830;28;20021;-88
2022/04/21 12:45:01;;;;;;;3.60;2.03;;;15.60;86.60;;;;;;5016517;28;20033;-88
2022/04/21 12:47:27;;;;;;;2.67;1.83;;;15.70;86.30;;;;;;5015875;28;20389;-89
2022/04/21 12:49:56;;;;;;;2.95;1.98;;;15.80;86.10;;;;;;5016697;28;20025;-90
2022/04/21 12:52:41;;;;;;;2.28;1.90;;;16.00;85.70;;;;;;5016900;28;20061;-90
2022/04/21 12:55:20;;;;;;;2.08;1.60;;;16.00;85.30;;;;;;5016703;28;20021;-90
2022/04/21 12:58:11;;;;;;;3.15;1.70;;;16.00;85.60;;;;;;5017532;28;20048;-89
2022/04/21 13:00:41;;;;;;;2.05;1.65;;;15.90;86.00;;;;;;5016716;28;20074;-89
2022/04/21 13:03:08;;;;;;;2.45;1.70;;;15.90;86.10;;;;;;5016639;28;20117;-89
2022/04/21 13:05:50;;;;;;;1.88;1.52;;;16.00;86.00;;;;;;5017111;28;20104;-94
2022/04/21 13:08:20;;;;;;;2.65;1.70;;;16.20;85.20;;;;;;5017661;28;20036;-93
2022/04/21 13:10:47;;;;;;;2.13;1.65;;;16.40;84.70;;;;;;5035246;28;20025;-94
2022/04/21 13:13:12;;;;;;;4.40;1.60;;;16.50;84.30;;;;;;5017581;28;20393;-94
2022/04/21 13:15:38;;;;;;;2.45;1.60;;;16.70;84.20;;;;;;5017842;28;20021;-95
2022/04/21 13:18:04;;;;;;;2.53;1.48;;;16.70;83.70;;;;;;5035272;28;20022;-94
2022/04/21 13:23:13;;;;;;;2.00;1.35;;;16.40;85.00;;;;;;5050688;28;20056;-94
2022/04/21 13:25:39;;;;;;;2.83;1.50;;;16.20;85.40;;;;;;5038337;28;20028;-94
2022/04/21 13:28:05;;;;;;;1.50;1.20;;;16.10;85.90;;;;;;5037353;28;20048;-93
2022/04/21 13:30:31;;;;;;;1.90;1.45;;;16.20;85.80;;;;;;5037219;28;20032;-90
2022/04/21 13:35:41;;;;;;;1.25;0.98;;;16.30;85.30;;;;;;5055400;28;20032;-90
2022/04/21 13:38:07;;;;;;;1.55;1.08;;;16.50;85.50;;;;;;5037101;28;20025;-93
2022/04/21 13:40:33;;;;;;;1.90;1.15;;;16.60;84.50;;;;;;5037095;28;20024;-94
2022/04/21 13:42:59;;;;;;;2.15;1.35;;;16.50;84.40;;;;;;5036758;28;20071;-93
2022/04/21 13:45:25;;;;;;;2.05;1.02;;;16.60;84.30;;;;;;5036958;28;20025;-93
2022/04/21 13:47:51;;;;;;;1.55;0.98;;;16.70;84.20;;;;;;5036782;28;20551;-93
2022/04/21 13:50:17;;;;;;;2.08;1.15;;;16.80;83.90;;;;;;5036687;28;20032;-93